Time;durP1;ratioP1;P1;durP2;ratioP2;P2;SDS_P1;SDS_P2;PMS_P1;PMS_P2;Temp;Humidity;BMP_temperature;BMP_pressure;BME280_temperature;BME280_humidity;BME280_pressure;Samples;Min_cycle;Max_cycle;Signal;HPM_P1;HPM_P2
2022/03/13 00:00:11;;;;;;;12.52;7.22;;;1.90;36.60;;;;;;5113044;28;20020;-75
2022/03/13 00:02:40;;;;;;;12.63;7.60;;;1.90;36.40;;;;;;5113520;28;20028;-77
2022/03/13 00:05:09;;;;;;;12.95;7.60;;;1.90;36.40;;;;;;5112815;28;20032;-77
2022/03/13 00:07:37;;;;;;;13.68;7.57;;;1.90;36.50;;;;;;5113418;28;20042;-76
2022/03/13 00:10:04;;;;;;;16.48;6.85;;;1.90;36.60;;;;;;5112941;28;20024;-77
2022/03/13 00:12:31;;;;;;;12.65;6.93;;;1.90;36.80;;;;;;5113349;28;20031;-77
2022/03/13 00:14:59;;;;;;;19.08;7.15;;;1.80;36.70;;;;;;5113175;28;20046;-77
2022/03/13 00:17:29;;;;;;;12.30;7.63;;;1.80;37.00;;;;;;5113292;28;20019;-77
2022/03/13 00:20:00;;;;;;;15.00;7.88;;;1.80;37.00;;;;;;5113114;28;20030;-77
2022/03/13 00:22:27;;;;;;;14.32;7.57;;;1.80;37.10;;;;;;5113326;28;20059;-77
2022/03/13 00:24:54;;;;;;;15.35;8.15;;;1.80;37.20;;;;;;5113162;28;20115;-75
2022/03/13 00:27:19;;;;;;;11.05;7.07;;;1.80;37.30;;;;;;5111782;28;20062;-77
2022/03/13 00:29:45;;;;;;;12.45;7.55;;;1.80;37.60;;;;;;5111867;28;20417;-77
2022/03/13 00:32:12;;;;;;;19.60;8.23;;;1.80;37.60;;;;;;5112105;28;20380;-77
2022/03/13 00:34:38;;;;;;;14.18;7.35;;;1.80;37.70;;;;;;5112846;28;20070;-77
2022/03/13 00:37:04;;;;;;;12.93;8.30;;;1.80;37.70;;;;;;5112471;28;20031;-77
2022/03/13 00:39:30;;;;;;;15.90;8.27;;;1.80;37.60;;;;;;5111577;28;20069;-76
2022/03/13 00:41:55;;;;;;;17.13;8.25;;;1.70;37.70;;;;;;5112901;28;20321;-75
2022/03/13 00:44:22;;;;;;;12.75;8.15;;;1.70;37.60;;;;;;5110809;28;20371;-76
2022/03/13 00:46:47;;;;;;;11.65;7.20;;;1.60;37.80;;;;;;5112682;28;20027;-75
2022/03/13 00:49:13;;;;;;;11.35;7.25;;;1.60;38.00;;;;;;5112082;28;20384;-76
2022/03/13 00:51:38;;;;;;;15.48;7.28;;;1.50;37.90;;;;;;5112291;28;20038;-76
2022/03/13 00:54:05;;;;;;;13.23;7.63;;;1.50;37.80;;;;;;5112003;28;20092;-76
2022/03/13 00:56:31;;;;;;;12.25;6.97;;;1.50;37.90;;;;;;5112432;28;20048;-76
2022/03/13 00:58:58;;;;;;;15.00;8.00;;;1.50;37.80;;;;;;5112211;28;20031;-76
2022/03/13 01:01:24;;;;;;;12.38;7.68;;;1.50;37.80;;;;;;5112742;28;20073;-75
2022/03/13 01:03:51;;;;;;;12.75;7.53;;;1.40;37.70;;;;;;5112483;28;20509;-76
2022/03/13 01:06:18;;;;;;;15.95;8.00;;;1.50;37.70;;;;;;5111863;28;20024;-77
2022/03/13 01:08:46;;;;;;;11.07;7.32;;;1.50;37.60;;;;;;5112299;28;20034;-76
2022/03/13 01:11:16;;;;;;;15.18;8.10;;;1.50;37.50;;;;;;5111694;28;20028;-76
2022/03/13 01:13:42;;;;;;;11.35;7.35;;;1.50;37.50;;;;;;5112166;28;20023;-76
2022/03/13 01:16:15;;;;;;;14.70;7.70;;;1.50;37.30;;;;;;5111717;28;20429;-76
2022/03/13 01:18:53;;;;;;;20.90;8.18;;;1.60;37.30;;;;;;5112153;28;20080;-76
2022/03/13 01:21:19;;;;;;;13.65;7.50;;;1.60;37.20;;;;;;5111801;28;20468;-76
2022/03/13 01:24:00;;;;;;;13.60;8.18;;;1.50;37.10;;;;;;5112174;28;20484;-76
2022/03/13 01:26:26;;;;;;;13.32;7.78;;;1.60;37.10;;;;;;5111915;28;20031;-76
2022/03/13 01:28:57;;;;;;;17.17;8.43;;;1.60;37.10;;;;;;5112045;28;20027;-76
2022/03/13 01:31:28;;;;;;;14.73;7.28;;;1.60;37.40;;;;;;5111400;28;20031;-76
2022/03/13 01:33:54;;;;;;;12.93;7.55;;;1.60;36.70;;;;;;5111701;28;20427;-76
2022/03/13 01:36:20;;;;;;;14.98;7.95;;;1.70;36.50;;;;;;5111634;28;20023;-76
2022/03/13 01:38:46;;;;;;;12.35;7.85;;;1.70;36.40;;;;;;5111621;28;20544;-75
2022/03/13 01:41:11;;;;;;;13.48;8.40;;;1.70;36.60;;;;;;5110042;28;20379;-76
2022/03/13 01:43:37;;;;;;;15.50;8.27;;;1.70;36.40;;;;;;5111727;28;20023;-76
2022/03/13 01:46:04;;;;;;;11.93;7.53;;;1.70;36.40;;;;;;5111194;28;20358;-76
2022/03/13 01:48:38;;;;;;;14.55;7.38;;;1.70;36.20;;;;;;5111659;28;20460;-76
2022/03/13 01:51:05;;;;;;;15.35;8.38;;;1.70;36.10;;;;;;5111451;28;20410;-75
2022/03/13 01:53:32;;;;;;;14.45;8.40;;;1.80;36.20;;;;;;5111909;28;20016;-75
2022/03/13 01:55:58;;;;;;;16.90;8.30;;;1.70;36.10;;;;;;5111352;28;20495;-75
2022/03/13 01:58:24;;;;;;;15.27;8.10;;;1.70;36.10;;;;;;5111432;28;20036;-75
2022/03/13 02:00:50;;;;;;;12.88;7.95;;;1.70;36.00;;;;;;5111823;28;20028;-75
2022/03/13 02:03:16;;;;;;;13.00;8.45;;;1.70;35.90;;;;;;5110770;28;20069;-77
2022/03/13 02:05:45;;;;;;;15.60;8.50;;;1.80;35.90;;;;;;5111991;28;20031;-75
2022/03/13 02:08:18;;;;;;;11.77;7.78;;;1.70;35.80;;;;;;5111283;28;20027;-77
2022/03/13 02:10:44;;;;;;;15.18;8.52;;;1.80;35.90;;;;;;5115281;28;20084;-77
2022/03/13 02:13:11;;;;;;;13.80;8.00;;;1.80;35.90;;;;;;5115115;28;20115;-77
2022/03/13 02:15:38;;;;;;;12.00;7.78;;;1.80;35.90;;;;;;5115547;28;20028;-77
2022/03/13 02:18:04;;;;;;;13.38;7.80;;;1.80;36.00;;;;;;5115139;28;20035;-77
2022/03/13 02:20:38;;;;;;;14.27;8.45;;;1.80;35.90;;;;;;5115143;28;20038;-76
2022/03/13 02:23:20;;;;;;;14.75;8.25;;;1.80;35.90;;;;;;5115293;28;20472;-77
2022/03/13 02:25:56;;;;;;;12.40;7.65;;;1.80;36.10;;;;;;5115550;28;20407;-77
2022/03/13 02:28:23;;;;;;;11.13;7.70;;;1.80;36.10;;;;;;5115015;28;20031;-77
2022/03/13 02:30:51;;;;;;;14.27;8.07;;;1.70;36.10;;;;;;5115329;28;20035;-77
2022/03/13 02:33:20;;;;;;;13.80;7.90;;;1.80;36.10;;;;;;5115111;28;20038;-77
2022/03/13 02:35:51;;;;;;;14.50;7.90;;;1.80;36.00;;;;;;5115361;28;20421;-77
2022/03/13 02:38:17;;;;;;;15.57;7.80;;;1.80;35.90;;;;;;5114476;28;20046;-77
2022/03/13 02:40:43;;;;;;;13.63;8.02;;;1.80;35.80;;;;;;5115247;28;20221;-77
2022/03/13 02:43:09;;;;;;;14.90;8.40;;;1.80;36.00;;;;;;5114633;28;20019;-77
2022/03/13 02:45:37;;;;;;;13.55;7.88;;;1.80;36.20;;;;;;5115196;28;20019;-77
2022/03/13 02:48:05;;;;;;;13.27;7.80;;;1.80;36.10;;;;;;5114506;28;20127;-77
2022/03/13 02:50:31;;;;;;;11.63;7.90;;;1.70;36.20;;;;;;5114678;28;20028;-76
2022/03/13 02:52:57;;;;;;;13.45;8.30;;;1.70;36.30;;;;;;5115228;28;20380;-76
2022/03/13 02:55:23;;;;;;;15.57;7.85;;;1.70;36.60;;;;;;5114211;28;20051;-77
2022/03/13 02:57:49;;;;;;;13.35;7.70;;;1.60;36.70;;;;;;5114479;28;20035;-77
2022/03/13 03:00:18;;;;;;;13.93;8.02;;;1.60;37.10;;;;;;5114262;28;20385;-77
2022/03/13 03:02:44;;;;;;;13.85;7.53;;;1.70;37.30;;;;;;5114727;28;20479;-77
2022/03/13 03:05:10;;;;;;;14.82;8.00;;;1.60;37.70;;;;;;5114072;28;20032;-77
2022/03/13 03:07:36;;;;;;;15.18;8.75;;;1.60;37.80;;;;;;5113938;28;20028;-76
2022/03/13 03:10:04;;;;;;;12.48;7.95;;;1.60;37.90;;;;;;5114413;28;20106;-77
2022/03/13 03:12:30;;;;;;;15.50;8.38;;;1.50;38.30;;;;;;5114265;28;20480;-77
2022/03/13 03:14:56;;;;;;;15.20;8.40;;;1.50;39.00;;;;;;5114622;28;20173;-76
2022/03/13 03:17:22;;;;;;;17.00;9.30;;;1.50;39.50;;;;;;5113915;28;20028;-76
2022/03/13 03:19:48;;;;;;;13.35;8.60;;;1.40;39.70;;;;;;5114064;28;20345;-77
2022/03/13 03:22:14;;;;;;;15.73;9.00;;;1.30;39.90;;;;;;5113262;28;20111;-77
2022/03/13 03:24:40;;;;;;;19.40;8.18;;;1.10;40.20;;;;;;5113985;28;20031;-75
2022/03/13 03:27:06;;;;;;;14.05;8.00;;;1.10;40.50;;;;;;5113027;28;20027;-76
2022/03/13 03:29:32;;;;;;;15.45;8.77;;;1.00;40.60;;;;;;5110272;28;20081;-75
2022/03/13 03:31:58;;;;;;;18.50;8.70;;;1.10;40.70;;;;;;5111599;28;20368;-75
2022/03/13 03:34:26;;;;;;;13.60;8.48;;;1.00;40.80;;;;;;5112684;28;20538;-75
2022/03/13 03:36:56;;;;;;;15.10;8.32;;;1.00;40.80;;;;;;5110997;28;20039;-77
2022/03/13 03:39:23;;;;;;;15.55;9.23;;;1.00;41.00;;;;;;5113061;28;20028;-75
2022/03/13 03:41:50;;;;;;;13.18;8.43;;;0.80;41.10;;;;;;5113697;28;20027;-76
2022/03/13 03:44:18;;;;;;;18.77;8.35;;;0.70;41.50;;;;;;5113560;28;20123;-76
2022/03/13 03:46:45;;;;;;;17.30;8.05;;;0.70;41.80;;;;;;5113997;28;20031;-75
2022/03/13 03:49:11;;;;;;;14.00;8.68;;;0.60;41.80;;;;;;5113322;28;20387;-75
2022/03/13 03:51:38;;;;;;;15.55;8.40;;;0.60;42.00;;;;;;5114010;28;20027;-76
2022/03/13 03:54:04;;;;;;;18.30;8.55;;;0.60;42.20;;;;;;5113021;28;20027;-77
2022/03/13 03:56:30;;;;;;;15.50;8.10;;;0.60;42.20;;;;;;5113899;28;20546;-77
2022/03/13 03:58:56;;;;;;;15.43;8.15;;;0.50;42.10;;;;;;5113778;28;20099;-76
2022/03/13 04:01:22;;;;;;;14.70;8.38;;;0.50;42.30;;;;;;5113118;28;20413;-76
2022/03/13 04:03:48;;;;;;;14.88;8.90;;;0.40;42.40;;;;;;5113809;28;20487;-76
2022/03/13 04:06:15;;;;;;;11.80;7.88;;;0.40;42.50;;;;;;5113252;28;20035;-75
2022/03/13 04:08:41;;;;;;;14.40;8.13;;;0.30;42.50;;;;;;5115493;28;20052;-76
2022/03/13 04:11:08;;;;;;;18.63;8.90;;;0.20;42.80;;;;;;5122707;28;20041;-75
2022/03/13 04:13:38;;;;;;;13.95;8.27;;;0.20;43.00;;;;;;5120825;28;20491;-76
2022/03/13 04:16:08;;;;;;;17.47;7.67;;;0.20;43.00;;;;;;5114534;28;20054;-77
2022/03/13 04:18:35;;;;;;;16.00;8.77;;;0.10;42.90;;;;;;5113699;28;20036;-76
2022/03/13 04:21:03;;;;;;;11.55;8.32;;;0.10;43.00;;;;;;5113631;28;20028;-76
2022/03/13 04:23:30;;;;;;;13.77;8.50;;;0.10;43.60;;;;;;5113528;28;20031;-76
2022/03/13 04:25:56;;;;;;;13.45;8.30;;;0.10;43.00;;;;;;5112770;28;20084;-75
2022/03/13 04:28:22;;;;;;;15.90;8.30;;;0.20;42.90;;;;;;5113061;28;20334;-77
2022/03/13 04:30:52;;;;;;;18.48;8.20;;;0.10;43.00;;;;;;5113064;28;20077;-76
2022/03/13 04:33:18;;;;;;;14.82;9.10;;;0.10;43.00;;;;;;5111837;28;20019;-77
2022/03/13 04:35:43;;;;;;;14.30;8.35;;;0.10;42.90;;;;;;5113103;28;20429;-77
2022/03/13 04:38:10;;;;;;;16.20;8.23;;;0.10;43.00;;;;;;5112081;28;20030;-77
2022/03/13 04:40:36;;;;;;;18.00;9.10;;;0.10;43.00;;;;;;5112966;28;20130;-77
2022/03/13 04:43:03;;;;;;;16.98;9.00;;;0.10;42.90;;;;;;5112956;28;20106;-76
2022/03/13 04:45:29;;;;;;;15.20;8.20;;;0.10;43.20;;;;;;5112800;28;20116;-77
2022/03/13 04:47:55;;;;;;;16.08;8.32;;;0.10;43.30;;;;;;5112782;28;20031;-75
2022/03/13 04:50:21;;;;;;;13.45;8.48;;;0.10;43.30;;;;;;5112195;28;20024;-75
2022/03/13 04:55:31;;;;;;;16.55;8.90;;;0.10;43.20;;;;;;5111693;28;20070;-77
2022/03/13 04:57:56;;;;;;;14.40;8.18;;;0.10;43.30;;;;;;5111831;28;20453;-75
2022/03/13 05:00:23;;;;;;;15.95;8.52;;;0.10;43.60;;;;;;5110824;28;20961;-75
2022/03/13 05:02:50;;;;;;;14.05;8.80;;;0.10;43.60;;;;;;5110684;28;20396;-77
2022/03/13 05:05:15;;;;;;;15.15;9.07;;;0.10;43.80;;;;;;5111018;28;20114;-77
2022/03/13 05:07:41;;;;;;;16.08;8.25;;;0.10;43.90;;;;;;5111527;28;20561;-77
2022/03/13 05:10:10;;;;;;;15.60;8.45;;;0.00;44.10;;;;;;5110594;28;20031;-76
2022/03/13 05:12:36;;;;;;;18.15;9.20;;;0.00;44.30;;;;;;5111514;28;20020;-76
2022/03/13 05:15:02;;;;;;;17.13;8.13;;;0.00;44.30;;;;;;5111100;28;20054;-75
2022/03/13 05:17:28;;;;;;;17.45;8.70;;;0.00;44.50;;;;;;5110984;28;20128;-75
2022/03/13 05:19:53;;;;;;;15.27;8.77;;;0.00;44.30;;;;;;5110072;28;20082;-75
2022/03/13 05:22:19;;;;;;;13.40;8.98;;;-0.10;44.70;;;;;;5110366;28;20024;-76
2022/03/13 05:24:46;;;;;;;15.73;8.57;;;-0.10;44.80;;;;;;5111408;28;20028;-75
2022/03/13 05:27:11;;;;;;;16.70;8.50;;;-0.10;45.00;;;;;;5110496;28;20027;-76
2022/03/13 05:29:37;;;;;;;17.83;8.40;;;-0.10;45.20;;;;;;5110737;28;20035;-75
2022/03/13 05:32:03;;;;;;;15.30;9.05;;;-0.10;45.40;;;;;;5111179;28;20026;-75
2022/03/13 05:34:29;;;;;;;19.27;9.80;;;-0.20;45.50;;;;;;5110973;28;20143;-76
2022/03/13 05:36:54;;;;;;;15.13;9.18;;;-0.20;45.70;;;;;;5111368;28;20028;-76
2022/03/13 05:39:20;;;;;;;18.38;9.38;;;-0.20;45.80;;;;;;5110375;28;20031;-75
2022/03/13 05:41:45;;;;;;;17.83;8.90;;;-0.20;45.50;;;;;;5110884;28;20031;-77
2022/03/13 05:44:12;;;;;;;18.48;9.15;;;-0.20;45.60;;;;;;5112395;28;20092;-77
2022/03/13 05:46:39;;;;;;;20.33;8.82;;;-0.20;45.60;;;;;;5116130;28;20031;-77
2022/03/13 05:49:05;;;;;;;16.30;8.77;;;-0.20;45.50;;;;;;5115498;28;20492;-76
2022/03/13 05:51:35;;;;;;;15.68;9.25;;;-0.20;45.40;;;;;;5116275;28;20038;-76
2022/03/13 05:54:03;;;;;;;14.88;9.02;;;-0.20;45.30;;;;;;5111857;28;20035;-76
2022/03/13 05:56:29;;;;;;;15.57;8.50;;;-0.10;45.20;;;;;;5071633;28;1133447;-76
2022/03/13 05:58:55;;;;;;;12.98;8.23;;;-0.10;45.30;;;;;;5111684;28;20270;-76
2022/03/13 06:01:20;;;;;;;15.60;7.97;;;0.00;45.10;;;;;;5110735;28;20023;-76
2022/03/13 06:03:46;;;;;;;15.15;8.23;;;0.00;45.10;;;;;;5111746;28;20073;-76
2022/03/13 06:06:13;;;;;;;14.73;9.23;;;0.00;44.90;;;;;;5110798;28;20019;-76
2022/03/13 06:08:39;;;;;;;13.75;8.93;;;0.00;44.70;;;;;;5111382;28;20023;-76
2022/03/13 06:11:04;;;;;;;16.90;8.60;;;0.10;44.70;;;;;;5111151;28;20107;-76
2022/03/13 06:13:30;;;;;;;16.88;8.90;;;0.10;44.60;;;;;;5111563;28;20384;-76
2022/03/13 06:15:57;;;;;;;16.50;9.25;;;0.20;44.50;;;;;;5111511;28;20032;-76
2022/03/13 06:21:08;;;;;;;19.13;8.88;;;0.30;44.20;;;;;;5109927;28;20046;-77
2022/03/13 06:23:34;;;;;;;17.95;8.65;;;0.40;44.10;;;;;;5112560;28;20020;-77
2022/03/13 06:26:00;;;;;;;13.88;8.35;;;0.50;43.90;;;;;;5111442;28;20032;-77
2022/03/13 06:28:26;;;;;;;15.35;9.43;;;0.50;43.70;;;;;;5110703;28;20032;-76
2022/03/13 06:30:55;;;;;;;15.85;9.23;;;0.60;43.50;;;;;;5112175;28;20381;-76
2022/03/13 06:33:21;;;;;;;16.70;9.52;;;0.60;43.50;;;;;;5109781;28;20468;-76
2022/03/13 06:35:46;;;;;;;19.10;8.77;;;0.70;43.50;;;;;;5110924;28;20035;-76
2022/03/13 06:38:12;;;;;;;14.88;8.93;;;0.70;43.30;;;;;;5110661;28;20040;-76
2022/03/13 06:40:38;;;;;;;17.10;9.07;;;0.70;43.10;;;;;;5111343;28;20023;-76
2022/03/13 06:43:03;;;;;;;15.00;9.18;;;0.70;43.10;;;;;;5111101;28;20043;-76
2022/03/13 06:45:29;;;;;;;18.08;9.27;;;0.80;43.00;;;;;;5111252;28;20408;-76
2022/03/13 06:47:55;;;;;;;19.17;8.93;;;0.90;42.90;;;;;;5113918;28;20024;-78
2022/03/13 06:50:23;;;;;;;15.50;9.32;;;1.00;42.70;;;;;;5116761;28;20110;-77
2022/03/13 06:52:50;;;;;;;16.98;9.02;;;1.00;42.50;;;;;;5111944;27;20455;-77
2022/03/13 06:55:16;;;;;;;16.17;8.57;;;1.10;42.50;;;;;;5108946;28;20051;-78
2022/03/13 06:57:43;;;;;;;15.30;8.60;;;1.10;42.30;;;;;;5115517;27;20060;-76
2022/03/13 07:00:10;;;;;;;17.05;8.90;;;1.20;42.30;;;;;;5113393;28;20110;-76
2022/03/13 07:02:36;;;;;;;16.88;8.63;;;1.30;42.20;;;;;;5115003;28;20030;-76
2022/03/13 07:05:02;;;;;;;16.38;8.70;;;1.30;42.20;;;;;;5113923;28;20092;-77
2022/03/13 07:07:28;;;;;;;13.77;9.10;;;1.40;42.00;;;;;;5113764;28;20023;-77
2022/03/13 07:09:57;;;;;;;16.77;8.98;;;1.40;41.60;;;;;;5114217;28;20034;-77
2022/03/13 07:12:23;;;;;;;13.25;8.23;;;1.50;41.50;;;;;;5113907;28;20020;-76
2022/03/13 07:14:49;;;;;;;14.27;8.32;;;1.60;41.50;;;;;;5114212;28;20051;-77
2022/03/13 07:17:16;;;;;;;14.88;8.38;;;1.60;41.40;;;;;;5113414;28;20456;-76
2022/03/13 07:19:43;;;;;;;14.05;8.60;;;1.70;41.10;;;;;;5114298;28;20016;-78
2022/03/13 07:22:13;;;;;;;14.93;8.48;;;1.80;41.00;;;;;;5113906;28;20023;-76
2022/03/13 07:24:40;;;;;;;15.98;8.65;;;1.90;40.80;;;;;;5113825;28;20360;-77
2022/03/13 07:27:06;;;;;;;16.75;8.70;;;2.10;40.50;;;;;;5113627;28;20024;-77
2022/03/13 07:29:32;;;;;;;15.18;8.32;;;2.20;40.20;;;;;;5112914;28;20478;-76
2022/03/13 07:31:57;;;;;;;16.42;8.70;;;2.40;40.00;;;;;;5113848;28;20116;-76
2022/03/13 07:34:24;;;;;;;16.33;8.80;;;2.50;39.70;;;;;;5113085;28;20361;-76
2022/03/13 07:36:51;;;;;;;15.27;8.57;;;2.80;39.30;;;;;;5113779;28;20028;-76
2022/03/13 07:39:21;;;;;;;13.45;8.88;;;3.00;38.90;;;;;;5114165;28;20031;-76
2022/03/13 07:41:47;;;;;;;13.20;8.70;;;3.30;38.20;;;;;;5112536;28;20387;-76
2022/03/13 07:44:13;;;;;;;14.50;8.73;;;3.60;37.50;;;;;;5115584;28;20028;-77
2022/03/13 07:46:39;;;;;;;14.18;8.45;;;3.90;37.00;;;;;;5114276;28;20035;-78
2022/03/13 07:49:05;;;;;;;13.00;8.88;;;4.30;36.30;;;;;;5113791;28;20020;-77
2022/03/13 07:51:33;;;;;;;15.82;8.65;;;4.50;35.70;;;;;;5112827;28;20024;-77
2022/03/13 07:53:59;;;;;;;15.57;8.75;;;4.70;35.80;;;;;;5113265;28;20059;-77
2022/03/13 07:56:25;;;;;;;19.63;8.73;;;4.90;35.30;;;;;;5113952;28;20086;-78
2022/03/13 07:58:50;;;;;;;12.43;8.05;;;5.10;34.70;;;;;;5113340;28;20034;-77
2022/03/13 08:01:16;;;;;;;16.13;8.93;;;5.40;34.00;;;;;;5114334;28;20020;-78
2022/03/13 08:03:44;;;;;;;14.63;8.50;;;5.60;33.20;;;;;;5112070;28;20093;-76
2022/03/13 08:06:10;;;;;;;12.40;8.02;;;5.90;32.90;;;;;;5112543;28;20031;-76
2022/03/13 08:08:36;;;;;;;13.40;8.50;;;6.70;32.50;;;;;;5112842;28;20031;-76
2022/03/13 08:11:02;;;;;;;12.30;7.88;;;8.20;30.90;;;;;;5113741;28;20042;-76
2022/03/13 08:13:48;;;;;;;14.25;8.45;;;10.00;28.50;;;;;;5113087;28;20068;-77
2022/03/13 08:16:14;;;;;;;15.27;8.50;;;10.50;28.20;;;;;;5113420;28;20040;-77
2022/03/13 08:18:40;;;;;;;15.23;8.88;;;10.80;27.30;;;;;;5114495;28;20035;-77
2022/03/13 08:21:05;;;;;;;12.55;8.57;;;10.50;27.20;;;;;;5113170;28;20027;-77
2022/03/13 08:23:31;;;;;;;13.77;8.25;;;9.80;27.60;;;;;;5113093;28;20371;-77
2022/03/13 08:25:57;;;;;;;15.65;8.57;;;9.20;27.80;;;;;;5113158;28;20472;-77
2022/03/13 08:28:22;;;;;;;12.07;7.68;;;8.40;28.40;;;;;;5112801;28;20035;-76
2022/03/13 08:30:48;;;;;;;14.15;8.70;;;7.90;29.00;;;;;;5113127;28;20026;-76
2022/03/13 08:33:14;;;;;;;12.70;8.63;;;7.60;29.70;;;;;;5112658;28;20110;-77
2022/03/13 08:35:39;;;;;;;12.15;8.40;;;7.50;29.90;;;;;;5113386;28;20032;-76
2022/03/13 08:38:06;;;;;;;13.20;8.52;;;7.50;29.80;;;;;;5112908;28;20460;-77
2022/03/13 08:40:32;;;;;;;12.38;8.43;;;7.40;30.00;;;;;;5112335;28;20088;-77
2022/03/13 08:42:57;;;;;;;16.15;8.40;;;7.40;29.80;;;;;;5112930;28;20024;-77
2022/03/13 08:45:24;;;;;;;15.45;8.65;;;7.40;30.00;;;;;;5112122;28;20076;-77
2022/03/13 08:47:50;;;;;;;14.90;7.63;;;7.30;29.80;;;;;;5112277;28;20023;-77
2022/03/13 08:50:20;;;;;;;11.50;7.72;;;7.40;30.00;;;;;;5108207;28;20494;-77
2022/03/13 08:52:46;;;;;;;13.45;8.60;;;7.40;30.00;;;;;;5112383;28;20015;-77
2022/03/13 08:55:15;;;;;;;12.93;7.93;;;7.40;30.00;;;;;;5111647;27;20174;-77
2022/03/13 08:57:42;;;;;;;16.67;8.98;;;7.50;29.80;;;;;;5117328;27;20019;-77
2022/03/13 09:00:10;;;;;;;12.32;8.40;;;7.40;29.80;;;;;;5113510;27;20027;-77
2022/03/13 09:02:36;;;;;;;11.65;7.93;;;7.50;29.80;;;;;;5113538;27;20460;-76
2022/03/13 09:05:02;;;;;;;11.82;7.60;;;7.60;30.00;;;;;;5129145;27;20027;-76
2022/03/13 09:07:28;;;;;;;14.25;8.30;;;7.60;29.60;;;;;;5115901;27;20630;-76
2022/03/13 09:09:54;;;;;;;14.15;8.07;;;7.60;29.20;;;;;;5124731;27;20045;-78
2022/03/13 09:12:20;;;;;;;13.65;8.77;;;7.60;29.20;;;;;;5111360;28;20468;-76
2022/03/13 09:14:46;;;;;;;10.82;8.30;;;7.60;29.50;;;;;;5112027;28;20074;-77
2022/03/13 09:17:12;;;;;;;11.55;7.70;;;7.60;29.20;;;;;;5111647;28;20172;-77
2022/03/13 09:19:38;;;;;;;12.23;7.95;;;7.70;29.40;;;;;;5111443;28;20425;-78
2022/03/13 09:22:04;;;;;;;12.07;8.25;;;7.70;29.30;;;;;;5112070;28;20071;-77
2022/03/13 09:24:30;;;;;;;12.40;7.93;;;7.80;29.20;;;;;;5111178;28;20024;-77
2022/03/13 09:27:14;;;;;;;12.88;7.78;;;7.80;29.30;;;;;;5110674;28;20031;-77
2022/03/13 09:29:40;;;;;;;13.02;8.00;;;7.80;29.40;;;;;;5092398;28;20538;-75
2022/03/13 09:32:06;;;;;;;12.68;7.30;;;7.90;29.40;;;;;;5093233;28;20048;-74
2022/03/13 09:34:32;;;;;;;12.52;8.18;;;8.00;28.80;;;;;;5094122;28;20049;-74
2022/03/13 09:36:59;;;;;;;12.57;7.65;;;8.20;28.70;;;;;;5094596;28;20077;-74
2022/03/13 09:39:25;;;;;;;15.68;8.57;;;8.20;28.70;;;;;;5093178;28;20032;-76
2022/03/13 09:41:52;;;;;;;11.90;7.97;;;8.30;28.30;;;;;;5099061;28;20028;-74
2022/03/13 09:44:19;;;;;;;12.10;7.80;;;8.30;28.10;;;;;;5105256;28;20032;-76
2022/03/13 09:46:45;;;;;;;13.05;7.70;;;8.40;28.00;;;;;;5098977;28;20093;-76
2022/03/13 09:49:11;;;;;;;13.23;8.60;;;8.40;27.90;;;;;;5094784;28;20027;-76
2022/03/13 09:51:36;;;;;;;12.68;7.32;;;8.40;27.80;;;;;;5096527;28;20025;-76
2022/03/13 09:54:03;;;;;;;14.55;7.43;;;8.50;28.10;;;;;;5094344;28;20032;-76
2022/03/13 09:56:29;;;;;;;10.68;8.05;;;8.60;28.30;;;;;;5093032;28;20070;-75
2022/03/13 09:58:55;;;;;;;15.45;8.63;;;8.70;28.90;;;;;;5092905;28;20457;-75
2022/03/13 10:01:21;;;;;;;13.18;7.40;;;8.80;28.40;;;;;;5092312;28;20021;-75
2022/03/13 10:03:46;;;;;;;12.00;7.80;;;8.90;28.10;;;;;;5092532;28;20063;-75
2022/03/13 10:06:13;;;;;;;12.80;7.70;;;8.90;28.40;;;;;;5093292;28;20032;-76
2022/03/13 10:08:38;;;;;;;13.10;7.32;;;8.90;27.50;;;;;;5093126;28;20032;-75
2022/03/13 10:11:04;;;;;;;14.18;8.45;;;8.90;27.50;;;;;;5092201;28;20111;-75
2022/03/13 10:13:40;;;;;;;10.02;6.72;;;8.90;27.20;;;;;;5091731;28;20040;-75
2022/03/13 10:16:08;;;;;;;11.35;6.57;;;8.80;27.20;;;;;;5091945;28;20046;-75
2022/03/13 10:18:34;;;;;;;12.27;7.88;;;8.80;27.40;;;;;;5089586;28;20230;-75
2022/03/13 10:21:12;;;;;;;9.75;7.10;;;8.90;27.00;;;;;;5102131;28;20055;-74
2022/03/13 10:23:39;;;;;;;10.73;6.78;;;8.90;26.40;;;;;;5110364;28;20024;-74
2022/03/13 10:26:05;;;;;;;11.27;7.47;;;8.90;26.50;;;;;;5111196;28;20023;-73
2022/03/13 10:28:37;;;;;;;12.23;7.50;;;8.90;26.70;;;;;;5113001;28;20024;-74
2022/03/13 10:31:03;;;;;;;14.43;7.40;;;9.00;26.50;;;;;;5115322;27;20020;-72
2022/03/13 10:33:42;;;;;;;12.07;7.50;;;9.00;26.50;;;;;;5121577;27;20026;-73
2022/03/13 10:36:14;;;;;;;12.40;7.40;;;9.10;26.60;;;;;;5115731;28;20533;-73
2022/03/13 10:38:41;;;;;;;12.60;6.90;;;9.20;26.10;;;;;;5117800;27;20027;-74
2022/03/13 10:41:08;;;;;;;9.52;6.43;;;9.30;26.30;;;;;;5095990;28;20020;-73
2022/03/13 10:44:13;;;;;;;10.75;7.10;;;9.30;26.10;;;;;;5094953;28;20525;-73
2022/03/13 10:46:40;;;;;;;11.18;6.47;;;9.40;25.80;;;;;;5063751;28;20062;-73
2022/03/13 10:49:09;;;;;;;12.43;6.95;;;9.30;25.70;;;;;;5095411;28;20380;-73
2022/03/13 10:51:36;;;;;;;9.02;6.57;;;9.20;25.70;;;;;;5115188;28;20119;-75
2022/03/13 10:54:04;;;;;;;11.57;7.07;;;9.10;25.90;;;;;;5116143;28;20023;-75
2022/03/13 10:56:30;;;;;;;9.40;6.63;;;9.10;26.10;;;;;;5116047;28;20047;-74
2022/03/13 10:58:56;;;;;;;13.40;7.13;;;9.20;26.10;;;;;;5115599;27;20037;-74
2022/03/13 11:01:41;;;;;;;11.80;6.38;;;9.30;26.10;;;;;;5117682;27;20456;-75
2022/03/13 11:04:06;;;;;;;10.60;6.30;;;9.30;25.90;;;;;;5130190;27;20038;-75
2022/03/13 11:06:35;;;;;;;11.38;6.07;;;9.40;25.70;;;;;;5135736;27;20019;-75
2022/03/13 11:09:01;;;;;;;12.07;6.95;;;9.30;25.60;;;;;;5117189;27;20475;-75
2022/03/13 11:11:27;;;;;;;10.50;7.18;;;9.40;25.70;;;;;;5115147;27;20019;-77
2022/03/13 11:14:03;;;;;;;9.20;6.18;;;9.40;25.70;;;;;;5133473;27;20050;-74
2022/03/13 11:16:30;;;;;;;13.35;7.18;;;9.40;25.80;;;;;;5117731;27;20035;-75
2022/03/13 11:19:01;;;;;;;10.68;6.72;;;9.40;25.70;;;;;;5122180;27;20376;-75
2022/03/13 11:21:28;;;;;;;9.07;6.40;;;9.40;26.00;;;;;;5113064;28;20024;-74
2022/03/13 11:23:53;;;;;;;12.45;7.07;;;9.50;25.90;;;;;;5113716;28;20024;-75
2022/03/13 11:26:22;;;;;;;12.65;6.93;;;9.60;26.00;;;;;;5113377;28;20108;-74
2022/03/13 11:28:49;;;;;;;10.18;6.65;;;9.70;26.10;;;;;;5113519;28;20525;-77
2022/03/13 11:31:35;;;;;;;13.80;7.03;;;9.80;26.00;;;;;;5114001;28;20076;-78
2022/03/13 11:34:20;;;;;;;10.65;6.28;;;9.80;25.70;;;;;;5113095;28;20377;-74
2022/03/13 11:36:47;;;;;;;10.65;7.22;;;9.90;25.50;;;;;;5113419;28;20062;-72
2022/03/13 11:39:24;;;;;;;11.45;7.38;;;9.90;25.50;;;;;;5113206;28;20164;-73
2022/03/13 11:41:50;;;;;;;8.02;5.97;;;10.00;25.50;;;;;;5113211;28;20043;-71
2022/03/13 11:44:21;;;;;;;10.15;6.60;;;10.10;25.50;;;;;;5112838;28;20023;-74
2022/03/13 11:46:48;;;;;;;11.35;7.07;;;10.10;25.70;;;;;;5113648;28;20050;-71
2022/03/13 11:49:30;;;;;;;12.00;7.05;;;10.20;25.40;;;;;;5113256;28;20106;-73
2022/03/13 11:52:13;;;;;;;;;;;10.20;25.80;;;;;;5111863;28;20019;-70
2022/03/13 11:54:55;;;;;;;9.45;6.40;;;10.30;25.80;;;;;;5114029;27;20341;-73
2022/03/13 11:57:27;;;;;;;11.38;7.38;;;10.40;25.40;;;;;;5121832;27;20033;-72
2022/03/13 12:00:13;;;;;;;15.35;7.38;;;10.50;24.70;;;;;;5121977;27;20027;-71
2022/03/13 12:02:41;;;;;;;9.85;6.93;;;10.50;25.20;;;;;;5110251;27;20036;-73
2022/03/13 12:05:25;;;;;;;10.13;7.13;;;10.60;25.20;;;;;;5115141;27;20159;-73
2022/03/13 12:08:05;;;;;;;10.43;7.22;;;10.60;25.10;;;;;;5129775;27;20065;-70
2022/03/13 12:10:43;;;;;;;10.98;7.13;;;10.50;25.20;;;;;;5114451;27;20022;-71
2022/03/13 12:13:10;;;;;;;11.60;7.50;;;10.50;25.10;;;;;;5112275;27;20388;-72
2022/03/13 12:15:37;;;;;;;13.13;6.82;;;10.50;25.30;;;;;;5112774;27;20035;-69
2022/03/13 12:18:32;;;;;;;9.63;6.68;;;10.50;25.20;;;;;;5116565;27;20439;-71
2022/03/13 12:21:07;;;;;;;10.95;6.82;;;10.50;25.20;;;;;;5109784;27;20028;-68
2022/03/13 12:23:38;;;;;;;10.00;7.45;;;10.60;25.40;;;;;;5112956;27;20032;-69
2022/03/13 12:26:22;;;;;;;14.20;7.55;;;10.50;25.70;;;;;;5113528;27;20044;-70
2022/03/13 12:28:49;;;;;;;12.07;7.75;;;10.50;26.00;;;;;;5111034;28;20050;-70
2022/03/13 12:31:15;;;;;;;12.23;7.60;;;10.50;26.00;;;;;;5112224;28;20019;-70
2022/03/13 12:33:49;;;;;;;13.65;7.70;;;10.60;26.20;;;;;;5111988;28;20031;-70
2022/03/13 12:36:16;;;;;;;12.43;7.45;;;10.60;26.20;;;;;;5112234;28;20052;-71
2022/03/13 12:38:49;;;;;;;10.18;7.38;;;10.70;25.80;;;;;;5112141;28;20031;-69
2022/03/13 12:41:15;;;;;;;9.77;7.32;;;10.70;25.60;;;;;;5106269;28;20392;-69
2022/03/13 12:44:02;;;;;;;10.00;7.10;;;10.50;25.20;;;;;;5111880;28;20026;-70
2022/03/13 12:46:30;;;;;;;10.73;7.18;;;10.40;25.60;;;;;;5111991;28;20062;-70
2022/03/13 12:49:01;;;;;;;13.23;7.40;;;10.30;25.60;;;;;;5112411;28;20027;-71
2022/03/13 12:51:34;;;;;;;12.95;7.38;;;10.20;26.00;;;;;;5111534;28;20483;-70
2022/03/13 12:54:04;;;;;;;8.73;6.60;;;10.20;26.00;;;;;;5112106;28;20410;-68